Terminal Aerodrome Forecast
Issued by NWS Sterling, VA

Current Version | Previous Version | Graphics & Text | Print | Product List | Glossary On
Versions: 1 2 3 4 5 6 7 8 9 10 11 12 13 14 15 16 17 18 19 20 21 22 23 24
000
FTUS41 KLWX 061044 AAB
TAFMRB
TAF AMD
KMRB 061044Z 0611/0706 VRB03KT 2SM -SHRA OVC008
     FM061300 14005KT 5SM BR OVC015
     FM061600 11007KT 3SM SHRA VCTS OVC015CB
     FM061900 13011KT 3SM TSRA BKN030CB
     FM062100 12008KT 3SM SHRA VCTS BKN040CB
     FM070100 09004KT P6SM OVC040=

USA.gov is the U.S. government's official web portal to all federal, state and local government web resources and services.